Time;durP1;ratioP1;P1;durP2;ratioP2;P2;SDS_P1;SDS_P2;PMS_P1;PMS_P2;Temp;Humidity;BMP_temperature;BMP_pressure;BME280_temperature;BME280_humidity;BME280_pressure;Samples;Min_cycle;Max_cycle;Signal;HPM_P1;HPM_P2
2023/11/19 00:00:19;;;;;;;;;;;;;;;-7.79;53.24;100963.25;5064788;28;19932;-76
2023/11/19 00:02:47;;;;;;;;;;;;;;;-7.75;53.21;100961.13;5078504;28;20002;-77
2023/11/19 00:05:13;;;;;;;;;;;;;;;-7.71;53.28;100958.06;5089461;28;19939;-76
2023/11/19 00:07:42;;;;;;;;;;;;;;;-7.74;53.39;100951.88;5086467;28;19996;-77
2023/11/19 00:10:09;;;;;;;;;;;;;;;-7.72;53.13;100950.38;5091021;28;19962;-75
2023/11/19 00:12:35;;;;;;;;;;;;;;;-7.69;52.95;100958.22;5090141;28;20370;-78
2023/11/19 00:15:01;;;;;;;;;;;;;;;-7.71;53.06;100957.19;5089944;28;19924;-76
2023/11/19 00:17:27;;;;;;;;;;;;;;;-7.71;53.37;100960.59;5088153;28;19920;-75
2023/11/19 00:19:52;;;;;;;;;;;;;;;-7.74;53.10;100957.84;5073949;28;19924;-77
2023/11/19 00:22:18;;;;;;;;;;;;;;;-7.75;53.30;100955.16;5096053;28;19920;-77
2023/11/19 00:24:44;;;;;;;;;;;;;;;-7.79;53.20;100953.13;5090905;28;19928;-77
2023/11/19 00:27:10;;;;;;;;;;;;;;;-7.80;53.20;100944.69;5064887;28;20358;-76
2023/11/19 00:29:36;;;;;;;;;;;;;;;-7.80;53.14;100952.28;5091639;28;20026;-76
2023/11/19 00:32:02;;;;;;;;;;;;;;;-7.79;53.13;100943.94;5090106;28;20008;-75
2023/11/19 00:34:28;;;;;;;;;;;;;;;-7.80;52.85;100939.63;5092231;28;19964;-77
2023/11/19 00:36:55;;;;;;;;;;;;;;;-7.79;53.33;100932.91;5088433;28;19966;-77
2023/11/19 00:39:21;;;;;;;;;;;;;;;-7.75;53.29;100933.31;5091710;28;21646;-76
2023/11/19 00:41:46;;;;;;;;;;;;;;;-7.77;52.81;100932.31;5092941;28;20010;-77
2023/11/19 00:44:12;;;;;;;;;;;;;;;-7.81;53.22;100926.84;5095692;28;20036;-77
2023/11/19 00:46:39;;;;;;;;;;;;;;;-7.83;53.31;100933.44;5090931;28;19920;-77
2023/11/19 00:49:05;;;;;;;;;;;;;;;-7.83;53.36;100939.38;5092236;28;19920;-77
2023/11/19 00:51:31;;;;;;;;;;;;;;;-7.89;52.90;100934.69;5091971;28;19966;-77
2023/11/19 00:53:57;;;;;;;;;;;;;;;-7.92;53.05;100936.97;5089523;28;19920;-76
2023/11/19 00:56:24;;;;;;;;;;;;;;;-7.93;53.48;100936.81;5074875;28;20382;-77
2023/11/19 00:58:49;;;;;;;;;;;;;;;-7.95;53.30;100929.13;5091085;28;19927;-78
2023/11/19 01:01:15;;;;;;;;;;;;;;;-7.99;53.43;100928.75;5090502;28;20369;-78
2023/11/19 01:03:41;;;;;;;;;;;;;;;-8.06;53.34;100935.81;5090740;28;19936;-76
2023/11/19 01:06:08;;;;;;;;;;;;;;;-8.04;53.36;100936.81;5075190;28;19946;-77
2023/11/19 01:08:35;;;;;;;;;;;;;;;-8.03;53.47;100931.03;5103326;28;19924;-76
2023/11/19 01:11:02;;;;;;;;;;;;;;;-8.09;53.09;100919.53;5090318;28;19924;-75
2023/11/19 01:13:27;;;;;;;;;;;;;;;-8.06;53.21;100917.25;5080118;28;19920;-76
2023/11/19 01:15:55;;;;;;;;;;;;;;;-8.07;53.29;100913.81;5089124;28;19934;-74
2023/11/19 01:18:22;;;;;;;;;;;;;;;-8.05;53.41;100908.88;5080239;28;20022;-75
2023/11/19 01:20:47;;;;;;;;;;;;;;;-8.12;53.37;100904.09;5073672;28;20026;-73
2023/11/19 01:23:13;;;;;;;;;;;;;;;-8.13;53.47;100899.81;5090007;28;19965;-73
2023/11/19 01:25:38;;;;;;;;;;;;;;;-8.17;53.28;100891.97;5056749;28;20345;-74
2023/11/19 01:28:05;;;;;;;;;;;;;;;-8.18;53.60;100899.44;5087513;28;19977;-72
2023/11/19 01:30:30;;;;;;;;;;;;;;;-8.15;53.62;100898.78;5088998;28;19927;-73
2023/11/19 01:32:56;;;;;;;;;;;;;;;-8.12;53.50;100894.88;5089569;28;20012;-74
2023/11/19 01:35:23;;;;;;;;;;;;;;;-8.07;53.90;100893.63;5108027;28;19927;-73
2023/11/19 01:37:50;;;;;;;;;;;;;;;-8.04;53.58;100887.91;5127858;27;19919;-75
2023/11/19 01:40:20;;;;;;;;;;;;;;;-8.12;53.29;100889.81;5086993;28;20297;-73
2023/11/19 01:42:45;;;;;;;;;;;;;;;-8.13;53.25;100887.16;5090398;28;19924;-73
2023/11/19 01:45:16;;;;;;;;;;;;;;;-8.11;53.66;100894.09;5122386;27;19975;-73
2023/11/19 01:47:42;;;;;;;;;;;;;;;-8.10;53.27;100880.72;5088338;28;19923;-78
2023/11/19 01:50:08;;;;;;;;;;;;;;;-8.09;53.07;100885.03;5072400;28;19920;-76
2023/11/19 01:52:36;;;;;;;;;;;;;;;-8.11;53.43;100888.19;5090946;28;19928;-78
2023/11/19 01:55:03;;;;;;;;;;;;;;;-8.12;53.53;100889.81;5091060;28;19924;-78
2023/11/19 01:57:28;;;;;;;;;;;;;;;-8.13;53.90;100893.09;5090987;28;19920;-79
2023/11/19 01:59:54;;;;;;;;;;;;;;;-8.17;53.33;100894.50;5097640;28;20426;-77
2023/11/19 02:02:20;;;;;;;;;;;;;;;-8.08;53.94;100890.97;5091850;28;19947;-79
2023/11/19 02:04:49;;;;;;;;;;;;;;;-8.05;53.31;100893.72;5110660;27;19931;-77
2023/11/19 02:07:17;;;;;;;;;;;;;;;-7.99;53.67;100889.19;5094792;28;20385;-82
2023/11/19 02:09:43;;;;;;;;;;;;;;;-8.05;53.57;100886.16;5111991;27;19924;-83
2023/11/19 02:12:11;;;;;;;;;;;;;;;-8.06;53.53;100887.81;5117219;27;19920;-83
2023/11/19 02:14:37;;;;;;;;;;;;;;;-8.10;53.53;100890.81;5080626;28;19924;-83
2023/11/19 02:17:03;;;;;;;;;;;;;;;-8.14;53.74;100882.88;5095454;28;19923;-83
2023/11/19 02:19:29;;;;;;;;;;;;;;;-8.17;53.62;100871.75;5095594;28;20548;-82
2023/11/19 02:22:14;;;;;;;;;;;;;;;-8.14;53.83;100875.28;5081723;28;19920;-84
2023/11/19 02:24:40;;;;;;;;;;;;;;;-8.14;53.48;100875.28;5081180;28;19959;-81
2023/11/19 02:27:10;;;;;;;;;;;;;;;-8.19;53.77;100875.78;5084754;28;19958;-82
2023/11/19 02:29:36;;;;;;;;;;;;;;;-8.28;53.71;100879.19;5115693;27;19927;-82
2023/11/19 02:32:03;;;;;;;;;;;;;;;-8.28;53.74;100886.75;5081194;28;19919;-83
2023/11/19 02:34:29;;;;;;;;;;;;;;;-8.27;53.50;100875.91;5066072;28;20006;-82
2023/11/19 02:36:54;;;;;;;;;;;;;;;-8.31;53.55;100872.25;5094153;28;20012;-82
2023/11/19 02:39:21;;;;;;;;;;;;;;;-8.32;53.57;100870.47;5098424;28;19931;-82
2023/11/19 02:41:50;;;;;;;;;;;;;;;-8.23;53.99;100871.22;5098483;28;20304;-83
2023/11/19 02:44:16;;;;;;;;;;;;;;;-8.24;53.35;100872.00;5098687;28;19930;-83
2023/11/19 02:46:42;;;;;;;;;;;;;;;-8.28;53.49;100870.00;5110797;27;19969;-82
2023/11/19 02:49:08;;;;;;;;;;;;;;;-8.31;53.77;100879.84;5094780;28;19951;-82
2023/11/19 02:51:34;;;;;;;;;;;;;;;-8.36;53.66;100878.56;5111867;27;20022;-82
2023/11/19 02:54:00;;;;;;;;;;;;;;;-8.53;53.48;100884.72;5113315;27;19974;-82
2023/11/19 02:56:26;;;;;;;;;;;;;;;-8.54;53.78;100877.91;5098403;28;19919;-82
2023/11/19 02:58:52;;;;;;;;;;;;;;;-8.54;53.92;100880.44;5097463;28;19919;-82
2023/11/19 03:01:24;;;;;;;;;;;;;;;-8.57;53.72;100870.06;5094503;28;19947;-82
2023/11/19 03:03:54;;;;;;;;;;;;;;;-8.58;53.62;100875.88;5113509;27;20418;-81
2023/11/19 03:06:21;;;;;;;;;;;;;;;-8.55;53.75;100878.66;5091679;28;19930;-83
2023/11/19 03:08:47;;;;;;;;;;;;;;;-8.50;53.94;100878.31;5062880;28;19920;-81
2023/11/19 03:11:13;;;;;;;;;;;;;;;-8.47;54.23;100887.75;5132635;27;19939;-81
2023/11/19 03:13:39;;;;;;;;;;;;;;;-8.52;53.75;100879.81;5101169;28;19945;-83
2023/11/19 03:16:05;;;;;;;;;;;;;;;-8.62;53.36;100882.31;5096533;28;19974;-81
2023/11/19 03:18:31;;;;;;;;;;;;;;;-8.71;53.96;100877.38;5100328;28;19920;-82
2023/11/19 03:20:58;;;;;;;;;;;;;;;-8.69;53.97;100880.91;5090918;28;19942;-83
2023/11/19 03:23:24;;;;;;;;;;;;;;;-8.62;53.88;100879.78;5096876;28;19927;-75
2023/11/19 03:25:50;;;;;;;;;;;;;;;-8.69;53.55;100874.97;5109898;27;20357;-75
2023/11/19 03:28:16;;;;;;;;;;;;;;;-8.73;54.17;100867.91;5071767;28;19951;-75
2023/11/19 03:30:41;;;;;;;;;;;;;;;-8.74;54.17;100861.94;5091872;28;20302;-74
2023/11/19 03:33:07;;;;;;;;;;;;;;;-8.68;54.27;100859.06;5128109;27;20424;-75
2023/11/19 03:35:33;;;;;;;;;;;;;;;-8.58;54.23;100863.25;5073004;28;20019;-74
2023/11/19 03:38:01;;;;;;;;;;;;;;;-8.53;54.05;100849.38;5082433;28;19920;-74
2023/11/19 03:40:26;;;;;;;;;;;;;;;-8.50;54.13;100847.13;5077341;28;19958;-74
2023/11/19 03:42:52;;;;;;;;;;;;;;;-8.58;54.04;100843.94;5083443;28;19992;-75
2023/11/19 03:45:18;;;;;;;;;;;;;;;-8.54;54.61;100842.56;5109248;27;20417;-75
2023/11/19 03:47:44;;;;;;;;;;;;;;;-8.48;54.65;100841.41;5110103;27;19920;-74
2023/11/19 03:50:09;;;;;;;;;;;;;;;-8.39;54.41;100840.41;5092669;28;20439;-74
2023/11/19 03:52:35;;;;;;;;;;;;;;;-8.32;54.42;100841.03;5091614;28;19920;-75
2023/11/19 03:55:02;;;;;;;;;;;;;;;-8.24;54.13;100838.28;5074317;28;19928;-74
2023/11/19 03:57:28;;;;;;;;;;;;;;;-8.19;54.36;100830.31;5093907;28;20013;-75
2023/11/19 03:59:55;;;;;;;;;;;;;;;-8.12;53.97;100843.47;5092465;28;19928;-75
2023/11/19 04:02:21;;;;;;;;;;;;;;;-8.13;54.24;100835.00;5078501;28;19972;-75
2023/11/19 04:04:46;;;;;;;;;;;;;;;-8.21;53.84;100836.00;5090195;28;19931;-74
2023/11/19 04:07:12;;;;;;;;;;;;;;;-8.22;54.08;100834.25;5109921;27;19924;-75
2023/11/19 04:09:38;;;;;;;;;;;;;;;-8.27;54.28;100833.84;5090110;28;20299;-74
2023/11/19 04:12:03;;;;;;;;;;;;;;;-8.21;54.12;100841.06;5089713;28;19919;-75
2023/11/19 04:14:29;;;;;;;;;;;;;;;-8.16;53.91;100839.78;5086843;28;19942;-74
2023/11/19 04:16:55;;;;;;;;;;;;;;;-8.11;54.08;100830.09;5070371;28;20412;-70
2023/11/19 04:19:21;;;;;;;;;;;;;;;-8.07;54.09;100819.47;5077291;28;19928;-73
2023/11/19 04:21:47;;;;;;;;;;;;;;;-8.05;53.98;100815.41;5058682;28;19919;-73
2023/11/19 04:24:14;;;;;;;;;;;;;;;-7.99;54.05;100815.91;5130380;27;19928;-72
2023/11/19 04:26:44;;;;;;;;;;;;;;;-7.95;54.25;100815.41;5076963;28;20293;-73
2023/11/19 04:29:14;;;;;;;;;;;;;;;-8.17;54.13;100821.22;5092254;28;19955;-72
2023/11/19 04:31:40;;;;;;;;;;;;;;;-8.38;53.44;100822.84;5088540;28;20010;-75
2023/11/19 04:34:06;;;;;;;;;;;;;;;-8.44;54.76;100822.34;5086539;28;20302;-73
2023/11/19 04:36:33;;;;;;;;;;;;;;;-8.31;54.59;100826.78;5093313;28;19919;-74
2023/11/19 04:38:59;;;;;;;;;;;;;;;-8.21;54.65;100831.84;5074381;28;20040;-72
2023/11/19 04:41:25;;;;;;;;;;;;;;;-8.12;54.74;100830.84;5071224;28;20515;-74
2023/11/19 04:43:51;;;;;;;;;;;;;;;-8.11;54.64;100825.03;5094838;28;20279;-74
2023/11/19 04:46:17;;;;;;;;;;;;;;;-8.10;54.31;100820.09;5072011;28;19939;-72
2023/11/19 04:48:42;;;;;;;;;;;;;;;-8.05;54.76;100818.81;5088663;28;20529;-72
2023/11/19 04:51:09;;;;;;;;;;;;;;;-7.96;55.35;100813.63;5072934;28;19919;-72
2023/11/19 04:53:35;;;;;;;;;;;;;;;-7.97;54.52;100816.91;5071737;28;19930;-72
2023/11/19 04:56:00;;;;;;;;;;;;;;;-7.92;54.88;100815.66;5080002;28;19924;-73
2023/11/19 04:58:29;;;;;;;;;;;;;;;-7.89;54.20;100822.59;5088513;28;19924;-73
2023/11/19 05:00:54;;;;;;;;;;;;;;;-7.82;54.50;100826.50;5107582;28;20032;-72
2023/11/19 05:03:20;;;;;;;;;;;;;;;-7.75;54.54;100824.63;5089773;28;20020;-74
2023/11/19 05:05:46;;;;;;;;;;;;;;;-7.64;54.27;100837.22;5086434;28;19924;-77
2023/11/19 05:08:11;;;;;;;;;;;;;;;-7.54;54.48;100836.31;5091169;28;19992;-74
2023/11/19 05:10:37;;;;;;;;;;;;;;;-7.45;54.12;100829.47;5091114;28;19954;-76
2023/11/19 05:13:03;;;;;;;;;;;;;;;-7.30;54.40;100830.69;5091568;28;19924;-75
2023/11/19 05:15:28;;;;;;;;;;;;;;;-7.15;54.46;100832.66;5125163;27;19970;-76
2023/11/19 05:17:54;;;;;;;;;;;;;;;-6.97;54.00;100836.66;5092416;28;19930;-84
2023/11/19 05:20:19;;;;;;;;;;;;;;;-6.83;54.24;100841.91;5106180;28;19920;-83
2023/11/19 05:22:45;;;;;;;;;;;;;;;-6.68;54.18;100838.00;5096306;28;20306;-83
2023/11/19 05:25:11;;;;;;;;;;;;;;;-6.55;53.90;100832.22;5108355;28;19925;-83
2023/11/19 05:27:37;;;;;;;;;;;;;;;-6.41;54.27;100835.81;5100793;28;19941;-85
2023/11/19 05:30:07;;;;;;;;;;;;;;;-6.27;53.82;100833.44;5099156;28;20062;-81
2023/11/19 05:32:33;;;;;;;;;;;;;;;-6.14;53.48;100831.06;5095993;28;19920;-81
2023/11/19 05:34:58;;;;;;;;;;;;;;;-6.05;53.26;100834.28;5109411;27;19927;-83
2023/11/19 05:37:24;;;;;;;;;;;;;;;-5.94;53.59;100847.72;5085316;28;20418;-83
2023/11/19 05:39:50;;;;;;;;;;;;;;;-5.81;53.53;100843.56;5087128;28;19920;-82
2023/11/19 05:42:16;;;;;;;;;;;;;;;-5.71;53.43;100842.59;5083847;28;19920;-85
2023/11/19 05:44:42;;;;;;;;;;;;;;;-5.63;53.42;100844.03;5109862;28;20310;-83
2023/11/19 05:50:11;;;;;;;;;;;;;;;-5.47;53.15;100831.69;5097236;28;20012;-84
2023/11/19 05:52:37;;;;;;;;;;;;;;;-5.37;52.76;100832.34;5091651;28;20406;-83
2023/11/19 05:55:09;;;;;;;;;;;;;;;-5.32;53.10;100823.41;5096294;28;19969;-83
2023/11/19 05:57:43;;;;;;;;;;;;;;;-5.36;52.35;100818.88;5110604;28;19920;-83
2023/11/19 06:00:10;;;;;;;;;;;;;;;-5.27;52.66;100819.53;5115184;27;20416;-85
2023/11/19 06:02:39;;;;;;;;;;;;;;;-5.23;52.89;100821.53;5064753;28;19928;-83
2023/11/19 06:05:06;;;;;;;;;;;;;;;-5.26;52.64;100815.34;5100152;28;19924;-83
2023/11/19 06:07:35;;;;;;;;;;;;;;;-5.23;52.93;100819.00;5068480;28;19966;-82
2023/11/19 06:10:02;;;;;;;;;;;;;;;-5.15;52.69;100825.47;5098388;28;19920;-83
2023/11/19 06:12:28;;;;;;;;;;;;;;;-5.05;52.84;100818.53;5105956;28;19928;-77
2023/11/19 06:14:54;;;;;;;;;;;;;;;-4.99;52.55;100814.75;5094647;28;19932;-79
2023/11/19 06:17:20;;;;;;;;;;;;;;;-4.98;52.96;100808.03;5100403;28;19920;-78
2023/11/19 06:19:46;;;;;;;;;;;;;;;-4.80;53.00;100815.16;5115705;27;19981;-79
2023/11/19 06:22:12;;;;;;;;;;;;;;;-4.71;52.89;100808.16;5074868;28;20351;-79
2023/11/19 06:24:37;;;;;;;;;;;;;;;-4.69;52.56;100816.75;5099059;28;20018;-80
2023/11/19 06:27:04;;;;;;;;;;;;;;;-4.58;52.83;100812.41;5087705;28;20023;-74
2023/11/19 06:29:30;;;;;;;;;;;;;;;-4.46;52.46;100807.28;5085779;28;19920;-77
2023/11/19 06:31:56;;;;;;;;;;;;;;;-4.43;52.45;100799.88;5091959;28;19927;-72
2023/11/19 06:34:21;;;;;;;;;;;;;;;-4.28;52.93;100808.53;5066926;28;19924;-73
2023/11/19 06:36:48;;;;;;;;;;;;;;;-4.13;52.38;100803.59;5101231;28;20401;-73
2023/11/19 06:39:14;;;;;;;;;;;;;;;-4.03;52.42;100799.97;5076739;28;19950;-73
2023/11/19 06:41:44;;;;;;;;;;;;;;;-3.92;52.50;100807.47;5093445;28;20389;-80
2023/11/19 06:44:10;;;;;;;;;;;;;;;-3.83;52.28;100803.84;5081797;28;19931;-73
2023/11/19 06:46:36;;;;;;;;;;;;;;;-3.74;52.17;100801.03;5091026;28;19920;-73
2023/11/19 06:49:02;;;;;;;;;;;;;;;-3.72;52.27;100803.66;5128424;27;19924;-74
2023/11/19 06:51:29;;;;;;;;;;;;;;;-3.86;52.05;100798.56;5091387;28;19920;-73
2023/11/19 06:53:55;;;;;;;;;;;;;;;-3.85;52.36;100799.44;5094790;28;19935;-75
2023/11/19 06:56:21;;;;;;;;;;;;;;;-3.79;51.96;100804.91;5095012;28;20329;-73
2023/11/19 06:58:50;;;;;;;;;;;;;;;-3.74;51.83;100803.56;5099738;28;20012;-73
2023/11/19 07:01:18;;;;;;;;;;;;;;;-3.75;52.08;100806.88;5103382;28;19919;-78
2023/11/19 07:03:46;;;;;;;;;;;;;;;-3.81;51.47;100799.75;5096472;28;19919;-73
2023/11/19 07:06:12;;;;;;;;;;;;;;;-3.74;51.97;100806.09;5072646;28;19923;-74
2023/11/19 07:08:39;;;;;;;;;;;;;;;-3.78;51.87;100807.59;5090682;28;19981;-75
2023/11/19 07:11:05;;;;;;;;;;;;;;;-3.57;52.45;100793.59;5092445;28;20305;-72
2023/11/19 07:13:31;;;;;;;;;;;;;;;-3.49;51.61;100793.28;5063840;28;19926;-74
2023/11/19 07:15:57;;;;;;;;;;;;;;;-3.48;51.12;100799.28;5089287;28;19920;-73
2023/11/19 07:18:23;;;;;;;;;;;;;;;-3.54;51.86;100797.22;5094407;28;20014;-74
2023/11/19 07:20:48;;;;;;;;;;;;;;;-3.44;52.31;100802.88;5074049;28;20357;-74
2023/11/19 07:23:17;;;;;;;;;;;;;;;-3.33;51.97;100802.78;5092876;28;19924;-74
2023/11/19 07:25:46;;;;;;;;;;;;;;;-3.18;51.49;100797.78;5082819;28;20411;-75
2023/11/19 07:28:12;;;;;;;;;;;;;;;-3.05;51.86;100796.88;5094416;28;19920;-76
2023/11/19 07:30:38;;;;;;;;;;;;;;;-2.96;52.09;100799.09;5074069;28;19931;-80
2023/11/19 07:33:03;;;;;;;;;;;;;;;-2.87;51.18;100803.88;5094987;28;19920;-76
2023/11/19 07:35:30;;;;;;;;;;;;;;;-2.84;51.38;100804.09;5094432;28;19920;-77
2023/11/19 07:37:57;;;;;;;;;;;;;;;-2.79;52.01;100799.25;5093964;28;20031;-77
2023/11/19 07:40:23;;;;;;;;;;;;;;;-2.72;51.73;100793.75;5091066;28;20027;-72
2023/11/19 07:42:49;;;;;;;;;;;;;;;-2.73;51.77;100794.53;5090560;28;19982;-75
2023/11/19 07:45:15;;;;;;;;;;;;;;;-2.69;51.62;100798.16;5086779;28;20377;-75
2023/11/19 07:47:43;;;;;;;;;;;;;;;-2.79;51.58;100792.50;5093367;28;20095;-74
2023/11/19 07:50:12;;;;;;;;;;;;;;;-2.72;51.48;100794.63;5080519;28;20026;-72
2023/11/19 07:52:40;;;;;;;;;;;;;;;-2.66;51.68;100788.16;5107051;27;21738;-76
2023/11/19 07:55:06;;;;;;;;;;;;;;;-2.57;51.07;100796.34;5061580;28;19924;-73
2023/11/19 07:57:32;;;;;;;;;;;;;;;-2.52;50.85;100797.50;5092521;28;19919;-73
2023/11/19 07:59:58;;;;;;;;;;;;;;;-2.59;51.47;100770.75;5093746;28;19931;-73
2023/11/19 08:02:24;;;;;;;;;;;;;;;-2.39;50.63;100785.50;5089209;28;19940;-74
2023/11/19 08:04:51;;;;;;;;;;;;;;;-2.31;51.21;100785.16;5090246;28;19923;-79
2023/11/19 08:07:20;;;;;;;;;;;;;;;-2.21;51.23;100780.59;5089187;28;19920;-73
2023/11/19 08:09:47;;;;;;;;;;;;;;;-2.18;50.30;100780.75;5094901;28;20011;-75
2023/11/19 08:12:14;;;;;;;;;;;;;;;-2.21;50.43;100778.91;5073766;28;20006;-73
2023/11/19 08:14:40;;;;;;;;;;;;;;;-2.25;50.86;100779.53;5076386;28;19919;-74
2023/11/19 08:17:06;;;;;;;;;;;;;;;-2.38;50.32;100777.06;5092636;28;20400;-72
2023/11/19 08:19:32;;;;;;;;;;;;;;;-2.44;50.50;100775.91;5091597;28;19927;-70
2023/11/19 08:21:58;;;;;;;;;;;;;;;-2.50;50.22;100772.09;5088360;28;20027;-70
2023/11/19 08:24:23;;;;;;;;;;;;;;;-2.51;50.47;100772.91;5089625;28;19934;-73
2023/11/19 08:26:49;;;;;;;;;;;;;;;-2.45;50.69;100771.59;5091438;28;19927;-78
2023/11/19 08:29:15;;;;;;;;;;;;;;;-2.36;50.58;100780.56;5073939;28;20056;-73
2023/11/19 08:31:40;;;;;;;;;;;;;;;-2.46;50.14;100782.56;5092704;28;19924;-74
2023/11/19 08:34:09;;;;;;;;;;;;;;;-2.58;49.91;100777.63;5090089;28;19947;-74
2023/11/19 08:36:35;;;;;;;;;;;;;;;-2.73;50.33;100771.63;5072583;28;19928;-73
2023/11/19 08:39:01;;;;;;;;;;;;;;;-2.76;50.28;100777.38;5076722;28;20300;-76
2023/11/19 08:41:27;;;;;;;;;;;;;;;-2.83;50.20;100766.72;5073676;28;20014;-77
2023/11/19 08:43:52;;;;;;;;;;;;;;;-2.71;50.15;100767.50;5075403;28;19981;-76
2023/11/19 08:46:21;;;;;;;;;;;;;;;-2.64;49.39;100768.72;5050299;28;19920;-73
2023/11/19 08:48:47;;;;;;;;;;;;;;;-2.72;49.70;100763.19;5089585;28;19927;-77
2023/11/19 08:51:12;;;;;;;;;;;;;;;-2.86;49.45;100767.44;5091440;28;19919;-72
2023/11/19 08:53:38;;;;;;;;;;;;;;;-2.88;49.23;100769.91;5090597;28;19924;-72
2023/11/19 08:56:05;;;;;;;;;;;;;;;-2.88;49.55;100757.16;5078220;28;19920;-74
2023/11/19 08:58:30;;;;;;;;;;;;;;;-2.76;49.73;100751.03;5091637;28;20022;-75
2023/11/19 09:00:56;;;;;;;;;;;;;;;-2.51;50.37;100748.28;5090563;28;20057;-75
2023/11/19 09:03:22;;;;;;;;;;;;;;;-2.38;49.24;100754.09;5091998;28;21658;-77
2023/11/19 09:05:47;;;;;;;;;;;;;;;-2.23;49.48;100747.34;5092110;28;19931;-77
2023/11/19 09:08:16;;;;;;;;;;;;;;;-2.09;48.63;100747.25;5093160;28;19924;-79
2023/11/19 09:10:41;;;;;;;;;;;;;;;-1.88;49.76;100738.28;5067039;28;20506;-79
2023/11/19 09:13:07;;;;;;;;;;;;;;;-1.64;48.93;100727.66;5093848;28;20066;-81
2023/11/19 09:15:36;;;;;;;;;;;;;;;-1.53;48.79;100728.25;5098173;28;19924;-82
2023/11/19 09:18:02;;;;;;;;;;;;;;;-1.50;48.82;100725.00;5098598;28;20049;-80
2023/11/19 09:20:27;;;;;;;;;;;;;;;-1.41;49.07;100726.41;5094516;28;19951;-80
2023/11/19 09:22:53;;;;;;;;;;;;;;;-1.00;49.09;100726.88;5098280;28;19923;-81
2023/11/19 09:25:19;;;;;;;;;;;;;;;-0.76;47.71;100734.03;5093762;28;19928;-81
2023/11/19 09:27:45;;;;;;;;;;;;;;;-0.62;47.15;100735.66;5080610;28;19920;-81
2023/11/19 09:30:11;;;;;;;;;;;;;;;-0.53;47.72;100726.66;5080333;28;19943;-80
2023/11/19 09:32:37;;;;;;;;;;;;;;;-0.44;47.52;100719.47;5097112;28;20034;-80
2023/11/19 09:35:03;;;;;;;;;;;;;;;-0.44;47.73;100714.34;5092849;28;19923;-79
2023/11/19 09:37:28;;;;;;;;;;;;;;;-0.38;47.64;100719.78;5097387;28;20393;-79
2023/11/19 09:39:54;;;;;;;;;;;;;;;-0.38;47.56;100717.22;5098367;28;20515;-79
2023/11/19 09:42:20;;;;;;;;;;;;;;;-0.34;47.37;100703.81;5067526;28;19924;-79
2023/11/19 09:44:47;;;;;;;;;;;;;;;-0.29;46.75;100692.88;5092904;28;20274;-79
2023/11/19 09:47:14;;;;;;;;;;;;;;;-0.42;47.14;100684.63;5098594;28;19920;-80
2023/11/19 09:49:40;;;;;;;;;;;;;;;-0.44;47.25;100696.44;5098206;28;19920;-80
2023/11/19 09:52:05;;;;;;;;;;;;;;;-0.58;47.16;100693.19;5131460;27;20346;-80
2023/11/19 09:54:32;;;;;;;;;;;;;;;-0.73;46.88;100693.28;5094574;28;19920;-79
2023/11/19 09:57:02;;;;;;;;;;;;;;;-0.89;46.38;100691.66;5077443;28;20332;-80
2023/11/19 09:59:29;;;;;;;;;;;;;;;-1.02;47.23;100690.13;5103300;28;19919;-79
2023/11/19 10:01:56;;;;;;;;;;;;;;;-1.09;47.10;100686.34;5079752;28;19970;-79
2023/11/19 10:04:22;;;;;;;;;;;;;;;-1.16;46.71;100679.19;5094984;28;19927;-79
2023/11/19 10:06:49;;;;;;;;;;;;;;;-1.16;47.30;100671.53;5093488;28;19978;-79
2023/11/19 10:09:15;;;;;;;;;;;;;;;-1.10;47.70;100678.63;5078304;28;19925;-79
2023/11/19 10:11:41;;;;;;;;;;;;;;;-1.02;47.75;100679.91;5096552;28;19930;-81
2023/11/19 10:14:07;;;;;;;;;;;;;;;-1.11;47.73;100680.31;5061561;28;20026;-77
2023/11/19 10:16:34;;;;;;;;;;;;;;;-1.11;47.12;100672.66;5126757;27;19945;-75
2023/11/19 10:19:00;;;;;;;;;;;;;;;-1.02;47.32;100676.47;5110336;27;19920;-81
2023/11/19 10:21:27;;;;;;;;;;;;;;;-1.07;47.10;100671.13;5097140;28;19920;-78
2023/11/19 10:23:54;;;;;;;;;;;;;;;-1.09;46.75;100676.13;5094329;28;19920;-80
2023/11/19 10:26:21;;;;;;;;;;;;;;;-1.03;46.56;100670.50;5070419;28;19967;-81
2023/11/19 10:28:50;;;;;;;;;;;;;;;-1.07;46.72;100666.88;5114066;27;20358;-81
2023/11/19 10:31:16;;;;;;;;;;;;;;;-0.99;46.52;100658.75;5112930;27;19927;-79
2023/11/19 10:33:44;;;;;;;;;;;;;;;-0.98;46.86;100655.38;5068532;28;19919;-80
2023/11/19 10:36:13;;;;;;;;;;;;;;;-1.06;46.68;100652.44;5095887;28;20386;-80
2023/11/19 10:38:40;;;;;;;;;;;;;;;-1.16;46.60;100663.84;5104733;28;20041;-81
2023/11/19 10:41:06;;;;;;;;;;;;;;;-1.30;47.22;100657.13;5095608;28;19920;-81
2023/11/19 10:43:43;;;;;;;;;;;;;;;-1.32;46.54;100648.53;5069673;28;19927;-80
2023/11/19 10:46:10;;;;;;;;;;;;;;;-1.39;46.61;100650.75;5100981;28;19919;-79
2023/11/19 10:48:36;;;;;;;;;;;;;;;-1.38;46.81;100651.63;5096664;28;20035;-81
2023/11/19 10:51:04;;;;;;;;;;;;;;;-1.31;46.65;100647.69;5093494;28;20018;-81
2023/11/19 10:53:31;;;;;;;;;;;;;;;-1.31;46.63;100645.16;5097698;28;20378;-81
2023/11/19 10:55:58;;;;;;;;;;;;;;;-1.34;46.65;100648.44;5095639;28;19931;-80
2023/11/19 10:58:24;;;;;;;;;;;;;;;-1.30;46.73;100654.56;5093777;28;20422;-82
2023/11/19 11:00:57;;;;;;;;;;;;;;;-1.27;46.32;100658.19;5103422;28;19920;-82
2023/11/19 11:03:26;;;;;;;;;;;;;;;-1.44;45.33;100664.06;5114322;27;19931;-81
2023/11/19 11:05:53;;;;;;;;;;;;;;;-1.59;46.10;100659.88;5092784;28;19924;-81
2023/11/19 11:08:20;;;;;;;;;;;;;;;-1.55;46.15;100659.25;5091371;28;21249;-79
2023/11/19 11:10:53;;;;;;;;;;;;;;;-1.54;46.29;100662.69;5095374;28;19976;-80
2023/11/19 11:13:19;;;;;;;;;;;;;;;-1.53;46.26;100664.44;5127033;27;20041;-72
2023/11/19 11:15:46;;;;;;;;;;;;;;;-1.72;46.39;100657.47;5090054;28;19965;-75
2023/11/19 11:18:12;;;;;;;;;;;;;;;-1.78;46.66;100663.13;5126468;27;19920;-75
2023/11/19 11:20:39;;;;;;;;;;;;;;;-1.87;46.05;100662.63;5089832;28;19920;-75
2023/11/19 11:23:20;;;;;;;;;;;;;;;-1.97;46.18;100656.97;5107906;27;19989;-73
2023/11/19 11:25:47;;;;;;;;;;;;;;;-1.98;46.31;100654.38;5089730;28;20413;-75
2023/11/19 11:28:18;;;;;;;;;;;;;;;-1.94;46.07;100652.84;5054807;28;19924;-73
2023/11/19 11:30:53;;;;;;;;;;;;;;;-1.90;46.30;100658.22;5090087;28;19924;-73
2023/11/19 11:33:37;;;;;;;;;;;;;;;-1.71;46.60;100651.56;5078515;28;20135;-75
2023/11/19 11:36:05;;;;;;;;;;;;;;;-1.54;46.70;100648.25;5088376;28;21506;-75
2023/11/19 11:38:37;;;;;;;;;;;;;;;-1.44;46.38;100648.75;5095334;28;20113;-75
2023/11/19 11:41:19;;;;;;;;;;;;;;;-1.49;46.05;100645.94;5096031;28;20081;-74
2023/11/19 11:43:48;;;;;;;;;;;;;;;-1.68;45.95;100605.81;5070908;28;19920;-75
2023/11/19 11:46:33;;;;;;;;;;;;;;;-1.51;45.98;100637.31;5091158;28;20381;-73
2023/11/19 11:49:00;;;;;;;;;;;;;;;-1.63;46.51;100641.78;5093725;28;19932;-74
2023/11/19 11:51:49;;;;;;;;;;;;;;;-1.61;46.72;100648.72;5062479;28;20031;-72
2023/11/19 11:54:18;;;;;;;;;;;;;;;-1.75;45.83;100653.06;5052561;28;20383;-73
2023/11/19 11:57:01;;;;;;;;;;;;;;;-1.86;46.14;100649.06;5091311;28;19928;-74
2023/11/19 11:59:31;;;;;;;;;;;;;;;-2.02;46.18;100657.53;5049442;28;20393;-74
2023/11/19 12:02:00;;;;;;;;;;;;;;;-2.18;46.14;100654.13;5090562;28;19924;-77
2023/11/19 12:04:27;;;;;;;;;;;;;;;-2.36;46.40;100648.84;5078787;28;19931;-77
2023/11/19 12:07:06;;;;;;;;;;;;;;;-2.43;46.47;100652.72;5092246;28;19920;-76
2023/11/19 12:09:32;;;;;;;;;;;;;;;-2.38;46.83;100647.03;5090606;28;19989;-75
2023/11/19 12:12:07;;;;;;;;;;;;;;;-2.33;46.89;100640.53;5070684;28;19927;-75
2023/11/19 12:14:51;;;;;;;;;;;;;;;-2.27;46.26;100640.84;5090153;28;20039;-74
2023/11/19 12:17:34;;;;;;;;;;;;;;;-2.26;46.27;100637.50;5091395;28;20416;-77
2023/11/19 12:20:01;;;;;;;;;;;;;;;-2.34;46.21;100643.88;5091856;28;20006;-76
2023/11/19 12:22:27;;;;;;;;;;;;;;;-2.34;46.09;100631.97;5126891;27;21051;-74
2023/11/19 12:24:56;;;;;;;;;;;;;;;-2.49;46.35;100629.44;5092612;28;19927;-74
2023/11/19 12:27:22;;;;;;;;;;;;;;;-2.50;46.87;100627.69;5089135;28;20010;-73
2023/11/19 12:29:48;;;;;;;;;;;;;;;-2.49;46.16;100623.47;5091697;28;19923;-74
2023/11/19 12:32:14;;;;;;;;;;;;;;;-2.62;45.70;100626.97;5072384;28;20004;-73
2023/11/19 12:34:40;;;;;;;;;;;;;;;-2.79;46.16;100621.81;5092951;28;20014;-75
2023/11/19 12:37:06;;;;;;;;;;;;;;;-2.83;46.47;100611.31;5090610;28;19920;-75